createdAt,value
2023-04-06T00:04:17.956Z,65.16
2023-04-06T00:09:15.251Z,65.85
2023-04-06T00:14:12.201Z,65.48
2023-04-06T00:19:09.369Z,65.17
2023-04-06T00:24:07.417Z,65.16
2023-04-06T00:29:04.368Z,66.13
2023-04-06T00:34:01.207Z,66.36
2023-04-06T00:38:58.261Z,66.56
2023-04-06T00:43:56.114Z,66.72
2023-04-06T00:48:53.146Z,66.87
2023-04-06T00:53:50.103Z,66.90
2023-04-06T00:58:47.448Z,67.12
2023-04-06T01:03:49.309Z,66.36
2023-04-06T01:08:48.058Z,66.82
2023-04-06T01:13:49.979Z,67.43
2023-04-06T01:18:56.573Z,66.87
2023-04-06T01:23:59.134Z,67.07
2023-04-06T01:29:04.325Z,67.10
2023-04-06T01:34:01.502Z,67.29
2023-04-06T01:38:59.368Z,65.97
2023-04-06T01:44:03.585Z,66.51
2023-04-06T01:49:02.355Z,65.55
2023-04-06T01:54:08.285Z,65.86
2023-04-06T01:59:20.556Z,64.90
2023-04-06T02:04:17.785Z,64.91
2023-04-06T02:09:18.172Z,64.85
2023-04-06T02:14:15.512Z,64.72
2023-04-06T02:19:18.842Z,65.17
2023-04-06T02:24:15.856Z,64.49
2023-04-06T02:29:13.710Z,64.54
2023-04-06T02:34:12.488Z,64.54
2023-04-06T02:39:13.344Z,63.80
2023-04-06T02:44:10.429Z,64.22
2023-04-06T02:49:12.513Z,64.08
2023-04-06T02:54:10.435Z,64.33
2023-04-06T02:59:07.632Z,63.82
2023-04-06T03:04:04.827Z,64.27
2023-04-06T03:09:03.469Z,64.40
2023-04-06T03:14:02.530Z,63.51
2023-04-06T03:18:59.707Z,63.67
2023-04-06T03:23:57.004Z,63.88
2023-04-06T03:28:58.077Z,64.41
2023-04-06T03:34:00.261Z,63.73
2023-04-06T03:39:01.763Z,63.65
2023-04-06T03:44:02.363Z,63.35
2023-04-06T03:49:01.194Z,63.25
2023-04-06T03:53:59.753Z,63.49
2023-04-06T03:58:57.057Z,64.07
2023-04-06T04:03:55.431Z,64.08
2023-04-06T04:08:52.466Z,64.26
2023-04-06T04:13:49.607Z,63.75
2023-04-06T04:18:48.528Z,63.98
2023-04-06T04:23:49.166Z,63.86
2023-04-06T04:28:46.452Z,63.87
2023-04-06T04:33:45.357Z,64.03
2023-04-06T04:38:53.797Z,63.79
2023-04-06T04:43:51.122Z,63.78
2023-04-06T04:48:54.204Z,63.27
2023-04-06T04:53:52.438Z,63.10
2023-04-06T04:58:57.115Z,63.23
2023-04-06T05:03:55.907Z,63.76
2023-04-06T05:08:53.962Z,63.39
2023-04-06T05:13:52.626Z,63.55
2023-04-06T05:18:53.793Z,63.36
2023-04-06T05:23:51.622Z,63.09
2023-04-06T05:28:49.639Z,62.86
2023-04-06T05:33:48.227Z,62.59
2023-04-06T05:38:48.671Z,62.39
2023-04-06T05:44:09.545Z,62.59
2023-04-06T05:49:07.200Z,62.01
2023-04-06T05:54:06.084Z,61.97
2023-04-06T05:59:03.915Z,60.80
2023-04-06T06:04:03.121Z,60.82
2023-04-06T06:09:03.816Z,60.69
2023-04-06T06:14:04.727Z,60.57
2023-04-06T06:19:06.678Z,59.58
2023-04-06T06:24:04.276Z,58.69
2023-04-06T06:29:01.406Z,58.47
2023-04-06T06:33:59.112Z,58.20
2023-04-06T06:38:57.362Z,58.06
2023-04-06T06:43:54.496Z,57.78
2023-04-06T06:48:56.330Z,57.73
2023-04-06T06:53:53.457Z,57.87
2023-04-06T06:58:54.257Z,57.13
2023-04-06T07:03:53.846Z,57.80
2023-04-06T07:08:51.349Z,56.53
2023-04-06T07:13:48.375Z,56.93
2023-04-06T07:18:46.478Z,55.41
2023-04-06T07:23:43.974Z,53.93
2023-04-06T07:28:40.920Z,52.84
2023-04-06T07:33:38.776Z,51.54
2023-04-06T07:38:36.951Z,51.24
2023-04-06T07:43:34.135Z,51.58
2023-04-06T07:48:31.192Z,50.52
2023-04-06T07:53:28.438Z,50.64
2023-04-06T07:58:26.475Z,49.35
2023-04-06T08:03:26.043Z,49.23
2023-04-06T08:08:24.192Z,47.46
2023-04-06T08:13:21.445Z,46.33
2023-04-06T08:18:19.118Z,47.25
2023-04-06T08:23:17.757Z,46.91
2023-04-06T08:28:15.488Z,45.42
2023-04-06T08:33:12.833Z,46.15
2023-04-06T08:38:10.870Z,45.70
2023-04-06T08:43:11.921Z,43.89
2023-04-06T08:48:10.130Z,43.41
2023-04-06T08:53:08.323Z,44.32
2023-04-06T08:58:08.202Z,42.61
2023-04-06T09:03:08.035Z,41.24
2023-04-06T09:08:05.891Z,40.86
2023-04-06T09:13:07.082Z,38.83
2023-04-06T09:18:04.345Z,37.85
2023-04-06T09:23:03.905Z,37.52
2023-04-06T09:28:03.423Z,38.05
2023-04-06T09:33:01.754Z,38.31
2023-04-06T09:37:58.753Z,37.50
2023-04-06T09:42:57.999Z,38.24
2023-04-06T09:47:56.846Z,37.69
2023-04-06T09:52:59.150Z,39.90
2023-04-06T09:58:02.191Z,40.62
2023-04-06T10:03:11.271Z,40.72
2023-04-06T10:08:11.134Z,41.77
2023-04-06T10:13:08.546Z,40.44
2023-04-06T10:18:07.890Z,40.57
2023-04-06T10:23:16.497Z,39.47
2023-04-06T10:28:20.701Z,39.32
2023-04-06T10:33:19.303Z,38.73
2023-04-06T10:38:21.556Z,35.63
2023-04-06T10:43:24.361Z,37.04
2023-04-06T10:48:21.523Z,36.35
2023-04-06T10:53:24.827Z,34.69
2023-04-06T10:58:29.318Z,34.77
2023-04-06T11:03:30.270Z,35.02
2023-04-06T11:08:29.752Z,35.47
2023-04-06T11:13:38.505Z,36.05
2023-04-06T11:18:35.856Z,36.75
2023-04-06T11:23:33.648Z,36.12
2023-04-06T11:28:30.992Z,36.56
2023-04-06T11:33:30.519Z,37.58
2023-04-06T11:38:33.239Z,36.63
2023-04-06T11:43:35.610Z,36.72
2023-04-06T11:48:32.856Z,37.13
2023-04-06T11:53:30.274Z,37.56
2023-04-06T11:58:27.773Z,37.36
2023-04-06T12:03:28.734Z,37.16
2023-04-06T12:08:26.429Z,37.85
2023-04-06T12:13:23.720Z,38.20
2023-04-06T12:18:21.458Z,39.26
2023-04-06T12:23:25.072Z,39.33
2023-04-06T12:28:23.713Z,39.09
2023-04-06T12:33:23.409Z,39.91
2023-04-06T12:38:21.921Z,39.14
2023-04-06T12:43:19.000Z,38.51
2023-04-06T12:48:16.517Z,37.85
2023-04-06T12:53:13.633Z,39.20
2023-04-06T12:58:17.866Z,39.61
2023-04-06T13:03:15.216Z,39.34
2023-04-06T13:08:12.357Z,39.35
2023-04-06T13:13:09.404Z,38.97
2023-04-06T13:18:08.962Z,38.52
2023-04-06T13:23:06.031Z,38.00
2023-04-06T13:28:03.514Z,37.59
2023-04-06T13:33:14.938Z,37.66
2023-04-06T13:38:13.441Z,37.49
2023-04-06T13:43:11.649Z,38.21
2023-04-06T13:48:08.593Z,39.21
2023-04-06T13:53:08.655Z,38.73
2023-04-06T13:58:06.494Z,37.40
2023-04-06T14:03:03.622Z,37.93
2023-04-06T14:08:03.027Z,37.42
2023-04-06T14:13:00.161Z,37.30
2023-04-06T14:18:05.246Z,37.06
2023-04-06T14:23:04.558Z,37.76
2023-04-06T14:28:02.302Z,38.24
2023-04-06T14:33:00.530Z,38.62
2023-04-06T14:38:00.473Z,38.91
2023-04-06T14:42:59.469Z,38.84
2023-04-06T14:47:56.537Z,38.66
2023-04-06T14:52:53.567Z,38.95
2023-04-06T14:57:59.311Z,38.36
2023-04-06T15:03:08.270Z,38.28
2023-04-06T15:08:06.079Z,38.90
2023-04-06T15:13:03.701Z,38.31
2023-04-06T15:18:02.682Z,37.93
2023-04-06T15:23:03.171Z,38.00
2023-04-06T15:28:01.757Z,38.31
2023-04-06T15:33:04.272Z,37.87
2023-04-06T15:38:08.683Z,38.33
2023-04-06T15:43:05.952Z,38.41
2023-04-06T15:48:09.375Z,38.36
2023-04-06T15:53:12.234Z,38.13
2023-04-06T15:58:09.155Z,38.62
2023-04-06T16:03:08.211Z,38.72
2023-04-06T16:08:08.071Z,39.32
2023-04-06T16:13:16.608Z,39.87
2023-04-06T16:18:15.413Z,39.17
2023-04-06T16:23:16.748Z,39.90
2023-04-06T16:28:13.733Z,40.56
2023-04-06T16:33:10.945Z,41.01
2023-04-06T16:38:10.721Z,40.98
2023-04-06T16:43:09.273Z,41.64
2023-04-06T16:48:06.333Z,42.13
2023-04-06T16:53:06.199Z,42.23
2023-04-06T16:58:09.814Z,42.65
2023-04-06T17:03:07.169Z,42.19
2023-04-06T17:08:04.434Z,42.30
2023-04-06T17:13:37.707Z,42.52
2023-04-06T17:18:34.642Z,42.97
2023-04-06T17:23:31.908Z,43.27
2023-04-06T17:28:31.016Z,42.08
2023-04-06T17:33:32.999Z,42.39
2023-04-06T17:38:31.137Z,41.81
2023-04-06T17:43:28.185Z,42.27
2023-04-06T17:48:34.874Z,43.26
2023-04-06T17:53:33.815Z,43.86
2023-04-06T17:58:31.079Z,44.13
2023-04-06T18:03:30.612Z,44.89
2023-04-06T18:08:35.771Z,44.91
2023-04-06T18:13:32.950Z,44.88
2023-04-06T18:18:29.926Z,44.70
2023-04-06T18:23:26.841Z,44.68
2023-04-06T18:28:24.860Z,45.05
2023-04-06T18:33:23.366Z,44.87
2023-04-06T18:38:21.015Z,44.94
2023-04-06T18:43:18.002Z,44.83
2023-04-06T18:48:25.542Z,44.62
2023-04-06T18:53:22.683Z,44.74
2023-04-06T18:58:26.387Z,45.13
2023-04-06T19:03:24.094Z,45.15
2023-04-06T19:08:23.095Z,45.52
2023-04-06T19:13:20.133Z,45.88
2023-04-06T19:18:19.110Z,45.23
2023-04-06T19:23:24.941Z,45.30
2023-04-06T19:28:22.070Z,45.52
2023-04-06T19:33:19.031Z,45.36
2023-04-06T19:38:17.205Z,45.33
2023-04-06T19:43:14.292Z,45.17
2023-04-06T19:48:11.548Z,45.59
2023-04-06T19:53:08.991Z,45.62
2023-04-06T19:58:06.956Z,45.55
2023-04-06T20:03:04.282Z,46.10
2023-04-06T20:08:01.500Z,45.73
2023-04-06T20:12:59.956Z,45.68
2023-04-06T20:18:12.497Z,46.02
2023-04-06T20:23:12.142Z,46.03
2023-04-06T20:28:09.868Z,46.25
2023-04-06T20:33:07.888Z,45.81
2023-04-06T20:38:04.978Z,46.62
2023-04-06T20:43:05.142Z,46.15
2023-04-06T20:48:02.520Z,46.16
2023-04-06T20:53:02.863Z,46.25
2023-04-06T20:57:59.931Z,46.15
2023-04-06T21:02:56.933Z,44.79
2023-04-06T21:07:53.860Z,45.30
2023-04-06T21:12:51.403Z,45.07
2023-04-06T21:17:48.376Z,44.54
2023-04-06T21:22:45.477Z,45.10
2023-04-06T21:27:43.955Z,44.40
2023-04-06T21:32:41.684Z,44.96
2023-04-06T21:37:40.333Z,44.42
2023-04-06T21:42:40.053Z,43.82
2023-04-06T21:47:39.379Z,43.85
2023-04-06T21:52:37.101Z,43.88
2023-04-06T21:57:34.082Z,42.96
2023-04-06T22:02:31.634Z,43.27
2023-04-06T22:07:28.767Z,43.47
2023-04-06T22:12:26.389Z,43.20
2023-04-06T22:17:23.387Z,42.88
2023-04-06T22:22:20.373Z,42.36
2023-04-06T22:27:19.723Z,42.96
2023-04-06T22:32:17.293Z,43.02
2023-04-06T22:37:14.215Z,43.58
2023-04-06T22:42:11.130Z,43.25
2023-04-06T22:47:08.033Z,43.47
2023-04-06T22:52:05.725Z,43.62
2023-04-06T22:57:02.588Z,43.55
2023-04-06T23:01:59.657Z,43.81
2023-04-06T23:07:02.781Z,43.34
2023-04-06T23:12:00.527Z,43.56
2023-04-06T23:16:57.780Z,43.63
2023-04-06T23:21:55.727Z,43.98
2023-04-06T23:26:52.554Z,44.29
2023-04-06T23:31:50.398Z,44.22
2023-04-06T23:36:47.508Z,43.98
2023-04-06T23:41:44.443Z,44.58
2023-04-06T23:46:41.448Z,44.93
2023-04-06T23:51:39.216Z,45.32
2023-04-06T23:56:36.438Z,45.30
